Time;durP1;ratioP1;P1;durP2;ratioP2;P2;SDS_P1;SDS_P2;PMS_P1;PMS_P2;Temp;Humidity;BMP_temperature;BMP_pressure;BME280_temperature;BME280_humidity;BME280_pressure;Samples;Min_cycle;Max_cycle;Signal;HPM_P1;HPM_P2
2021/12/30 00:00:35;;;;;;;15.68;5.88;;;;;;;;;;5015101;28;20297;-85
2021/12/30 00:03:06;;;;;;;14.82;5.10;;;;;;;;;;5003164;28;20028;-86
2021/12/30 00:05:40;;;;;;;16.30;6.72;;;;;;;;;;4975260;28;20727;-85
2021/12/30 00:08:13;;;;;;;14.25;6.10;;;;;;;;;;5005311;28;21282;-85
2021/12/30 00:10:41;;;;;;;16.27;5.95;;;;;;;;;;5005179;28;20042;-85
2021/12/30 00:13:09;;;;;;;15.07;6.10;;;;;;;;;;5006703;28;20029;-84
2021/12/30 00:15:36;;;;;;;14.02;5.75;;;;;;;;;;5004461;28;20109;-85
2021/12/30 00:18:03;;;;;;;15.63;5.88;;;;;;;;;;4981911;28;20029;-85
2021/12/30 00:20:33;;;;;;;11.85;5.30;;;;;;;;;;5019843;28;20128;-85
2021/12/30 00:23:03;;;;;;;12.98;5.38;;;;;;;;;;5000299;28;20026;-84
2021/12/30 00:25:37;;;;;;;16.00;6.07;;;;;;;;;;5004772;28;20034;-84
2021/12/30 00:28:06;;;;;;;16.40;6.10;;;;;;;;;;4986083;28;20034;-84
2021/12/30 00:30:32;;;;;;;13.18;5.90;;;;;;;;;;5003498;28;20041;-85
2021/12/30 00:33:00;;;;;;;14.18;6.55;;;;;;;;;;5004647;28;20026;-85
2021/12/30 00:35:27;;;;;;;14.55;5.32;;;;;;;;;;5003266;28;20112;-85
2021/12/30 00:37:55;;;;;;;13.02;5.80;;;;;;;;;;5008348;28;20804;-85
2021/12/30 00:40:26;;;;;;;13.80;6.47;;;;;;;;;;5013359;28;20142;-85
2021/12/30 00:42:54;;;;;;;16.55;6.45;;;;;;;;;;5008631;28;20191;-85
2021/12/30 00:45:24;;;;;;;12.18;5.20;;;;;;;;;;5029754;28;20029;-85
2021/12/30 00:47:50;;;;;;;15.15;6.40;;;;;;;;;;5045234;28;20033;-85
2021/12/30 00:50:19;;;;;;;13.73;5.90;;;;;;;;;;5031056;28;20098;-85
2021/12/30 00:52:48;;;;;;;16.00;6.07;;;;;;;;;;5023119;28;20702;-86
2021/12/30 00:55:16;;;;;;;13.90;6.50;;;;;;;;;;5012822;28;20026;-86
2021/12/30 00:57:47;;;;;;;15.13;6.15;;;;;;;;;;5015806;28;20128;-85
2021/12/30 01:00:36;;;;;;;13.57;6.15;;;;;;;;;;5010820;28;20029;-85
2021/12/30 01:03:03;;;;;;;15.60;5.82;;;;;;;;;;5008154;28;20041;-85
2021/12/30 01:05:30;;;;;;;15.40;5.90;;;;;;;;;;5011489;28;20155;-85
2021/12/30 01:07:57;;;;;;;16.65;6.35;;;;;;;;;;5003752;28;20045;-86
2021/12/30 01:10:26;;;;;;;16.65;5.63;;;;;;;;;;4971165;28;20046;-84
2021/12/30 01:13:04;;;;;;;13.35;5.68;;;;;;;;;;4970110;28;20026;-85
2021/12/30 01:15:55;;;;;;;14.98;6.10;;;;;;;;;;4987570;28;20088;-85
2021/12/30 01:18:35;;;;;;;12.43;5.03;;;;;;;;;;4956406;28;20041;-85
2021/12/30 01:21:12;;;;;;;14.77;5.32;;;;;;;;;;4985118;28;20048;-84
2021/12/30 01:23:41;;;;;;;14.15;5.38;;;;;;;;;;4988590;28;20112;-85
2021/12/30 01:26:08;;;;;;;13.55;5.03;;;;;;;;;;4969699;28;21528;-85
2021/12/30 01:28:36;;;;;;;14.60;5.30;;;;;;;;;;4992005;28;20026;-85
2021/12/30 01:31:03;;;;;;;13.05;4.97;;;;;;;;;;4966861;28;20037;-85
2021/12/30 01:33:30;;;;;;;14.80;5.00;;;;;;;;;;4971515;28;20046;-85
2021/12/30 01:35:57;;;;;;;14.63;5.03;;;;;;;;;;4969121;28;20042;-85
2021/12/30 01:38:25;;;;;;;15.02;4.93;;;;;;;;;;4987293;28;20034;-85
2021/12/30 01:40:59;;;;;;;14.38;4.68;;;;;;;;;;4966882;28;20030;-85
2021/12/30 01:43:26;;;;;;;15.40;4.60;;;;;;;;;;4970610;28;20037;-85
2021/12/30 01:45:53;;;;;;;14.13;4.50;;;;;;;;;;4987430;28;20053;-85
2021/12/30 01:48:21;;;;;;;12.30;4.03;;;;;;;;;;4970676;28;20622;-85
2021/12/30 01:50:48;;;;;;;12.93;4.35;;;;;;;;;;4986400;28;20117;-84
2021/12/30 01:53:15;;;;;;;11.75;3.92;;;;;;;;;;4988766;28;20029;-85
2021/12/30 01:55:44;;;;;;;12.93;4.15;;;;;;;;;;4987218;28;20021;-85
2021/12/30 01:58:13;;;;;;;13.93;4.13;;;;;;;;;;4990144;28;20022;-84
2021/12/30 02:00:41;;;;;;;12.38;4.28;;;;;;;;;;4990939;28;20037;-85
2021/12/30 02:03:10;;;;;;;15.75;4.75;;;;;;;;;;4973937;28;20045;-84
2021/12/30 02:05:37;;;;;;;12.90;4.25;;;;;;;;;;4994577;28;20195;-85
2021/12/30 02:08:07;;;;;;;13.57;4.40;;;;;;;;;;4978923;28;20152;-85
2021/12/30 02:10:36;;;;;;;13.35;4.35;;;;;;;;;;5011759;28;20445;-84
2021/12/30 02:13:03;;;;;;;14.32;4.57;;;;;;;;;;4986579;28;20495;-85
2021/12/30 02:15:31;;;;;;;14.30;4.65;;;;;;;;;;4974180;28;20034;-85
2021/12/30 02:18:01;;;;;;;14.05;4.30;;;;;;;;;;4987763;28;20030;-86
2021/12/30 02:20:46;;;;;;;11.85;4.25;;;;;;;;;;4957829;28;20116;-84
2021/12/30 02:23:20;;;;;;;13.52;4.20;;;;;;;;;;4957230;28;20041;-85
2021/12/30 02:25:48;;;;;;;10.32;3.72;;;;;;;;;;4990648;28;20034;-85
2021/12/30 02:28:19;;;;;;;13.27;4.00;;;;;;;;;;4975256;28;20033;-85
2021/12/30 02:30:47;;;;;;;13.63;3.92;;;;;;;;;;4975858;28;20221;-85
2021/12/30 02:33:15;;;;;;;11.13;2.92;;;;;;;;;;4989112;28;20048;-85
2021/12/30 02:35:42;;;;;;;12.25;3.90;;;;;;;;;;4973679;28;20488;-85
2021/12/30 02:38:14;;;;;;;10.55;3.15;;;;;;;;;;4985853;28;20034;-84
2021/12/30 02:40:55;;;;;;;10.48;3.70;;;;;;;;;;4984500;28;20053;-84
2021/12/30 02:43:24;;;;;;;12.40;4.07;;;;;;;;;;4973137;28;20033;-85
2021/12/30 02:45:55;;;;;;;11.07;3.45;;;;;;;;;;4988459;28;20048;-85
2021/12/30 02:48:30;;;;;;;14.55;3.97;;;;;;;;;;4969921;28;20380;-84
2021/12/30 02:50:59;;;;;;;13.98;3.50;;;;;;;;;;4958569;28;20033;-85
2021/12/30 02:53:27;;;;;;;11.90;3.75;;;;;;;;;;4987655;28;20091;-85
2021/12/30 02:55:57;;;;;;;12.27;3.17;;;;;;;;;;4967230;28;20072;-84
2021/12/30 02:58:25;;;;;;;12.63;3.60;;;;;;;;;;5010983;28;20148;-85
2021/12/30 03:01:08;;;;;;;12.23;3.50;;;;;;;;;;4989175;28;20029;-85
2021/12/30 03:03:38;;;;;;;12.90;4.10;;;;;;;;;;5010468;28;20064;-85
2021/12/30 03:06:08;;;;;;;13.65;4.10;;;;;;;;;;4993568;28;20033;-85
2021/12/30 03:08:39;;;;;;;12.90;4.05;;;;;;;;;;5005492;28;20069;-85
2021/12/30 03:11:08;;;;;;;11.88;3.83;;;;;;;;;;4991988;28;20534;-86
2021/12/30 03:13:40;;;;;;;11.77;3.60;;;;;;;;;;5010888;28;20032;-86
2021/12/30 03:16:08;;;;;;;12.05;4.07;;;;;;;;;;5004453;28;23925;-85
2021/12/30 03:18:40;;;;;;;14.02;4.07;;;;;;;;;;4992238;28;20048;-83
2021/12/30 03:21:15;;;;;;;13.35;3.83;;;;;;;;;;5005587;28;20045;-84
2021/12/30 03:23:42;;;;;;;13.27;3.72;;;;;;;;;;5002392;28;20026;-83
2021/12/30 03:26:10;;;;;;;13.32;3.97;;;;;;;;;;5006679;28;20100;-84
2021/12/30 03:28:39;;;;;;;12.40;3.67;;;;;;;;;;5003866;28;20041;-85
2021/12/30 03:31:08;;;;;;;11.85;3.90;;;;;;;;;;5007210;28;20160;-84
2021/12/30 03:33:38;;;;;;;12.38;4.03;;;;;;;;;;4990429;28;20037;-84
2021/12/30 03:36:08;;;;;;;10.32;3.60;;;;;;;;;;5017484;28;20088;-84
2021/12/30 03:38:37;;;;;;;12.13;3.72;;;;;;;;;;5006358;28;20025;-84
2021/12/30 03:41:12;;;;;;;9.63;3.38;;;;;;;;;;5000606;28;20052;-85
2021/12/30 03:43:39;;;;;;;12.10;3.78;;;;;;;;;;5005055;28;20025;-85
2021/12/30 03:46:06;;;;;;;9.10;2.95;;;;;;;;;;5000901;28;20032;-84
2021/12/30 03:48:40;;;;;;;10.57;3.45;;;;;;;;;;4981486;28;21489;-83
2021/12/30 03:51:09;;;;;;;10.90;3.63;;;;;;;;;;5002388;28;20044;-84
2021/12/30 03:53:39;;;;;;;8.77;2.70;;;;;;;;;;5002099;28;20488;-83
2021/12/30 03:56:07;;;;;;;9.18;2.90;;;;;;;;;;4978611;28;20654;-83
2021/12/30 03:58:35;;;;;;;9.70;2.90;;;;;;;;;;4989641;28;20037;-84
2021/12/30 04:01:05;;;;;;;8.75;2.65;;;;;;;;;;4997103;28;20045;-84
2021/12/30 04:03:32;;;;;;;9.82;2.90;;;;;;;;;;5007227;28;20029;-83
2021/12/30 04:06:01;;;;;;;7.80;2.22;;;;;;;;;;4998427;28;20049;-84
2021/12/30 04:08:29;;;;;;;8.88;2.55;;;;;;;;;;5000872;28;20071;-83
2021/12/30 04:10:56;;;;;;;9.65;2.53;;;;;;;;;;5002187;28;20051;-84
2021/12/30 04:13:24;;;;;;;9.73;2.60;;;;;;;;;;5005663;28;20064;-84
2021/12/30 04:15:53;;;;;;;8.02;2.55;;;;;;;;;;5004672;28;20034;-83
2021/12/30 04:18:21;;;;;;;9.82;2.22;;;;;;;;;;4959029;28;20043;-84
2021/12/30 04:20:49;;;;;;;7.75;2.30;;;;;;;;;;4958199;28;20085;-84
2021/12/30 04:23:17;;;;;;;8.68;2.38;;;;;;;;;;4953348;28;20042;-84
2021/12/30 04:25:44;;;;;;;7.72;2.30;;;;;;;;;;4960895;28;20094;-86
2021/12/30 04:28:12;;;;;;;8.32;2.60;;;;;;;;;;4960498;28;20066;-86
2021/12/30 04:30:39;;;;;;;8.68;2.38;;;;;;;;;;4946401;28;20143;-83
2021/12/30 04:33:07;;;;;;;7.20;2.13;;;;;;;;;;4942498;28;20358;-86
2021/12/30 04:35:34;;;;;;;8.65;2.35;;;;;;;;;;4962474;28;20035;-83
2021/12/30 04:38:01;;;;;;;9.93;2.20;;;;;;;;;;4941972;28;20034;-83
2021/12/30 04:40:28;;;;;;;9.05;2.67;;;;;;;;;;4943039;28;20633;-83
2021/12/30 04:42:56;;;;;;;10.05;2.47;;;;;;;;;;4959311;28;20073;-82
2021/12/30 04:45:26;;;;;;;7.35;2.13;;;;;;;;;;4957398;28;20038;-83
2021/12/30 04:47:53;;;;;;;8.57;2.20;;;;;;;;;;4956499;28;20034;-83
2021/12/30 04:50:20;;;;;;;6.53;1.67;;;;;;;;;;4961195;28;20544;-83
2021/12/30 04:52:49;;;;;;;8.00;1.90;;;;;;;;;;4938836;28;20156;-83
2021/12/30 04:55:17;;;;;;;7.82;2.05;;;;;;;;;;4962218;28;20495;-83
2021/12/30 04:57:46;;;;;;;6.93;2.08;;;;;;;;;;4941057;28;20093;-83
2021/12/30 05:00:13;;;;;;;7.45;2.10;;;;;;;;;;4943859;28;20038;-83
2021/12/30 05:03:26;;;;;;;6.80;1.80;;;;;;;;;;4985467;28;20102;-81
2021/12/30 05:05:29;;;;;;;6.97;2.17;;;;;;;;;;4990572;28;20033;-83
2021/12/30 05:07:56;;;;;;;7.70;1.92;;;;;;;;;;5000160;28;20051;-83
2021/12/30 05:10:27;;;;;;;6.72;1.90;;;;;;;;;;5003771;28;20077;-85
2021/12/30 05:12:55;;;;;;;7.05;1.95;;;;;;;;;;5000558;28;20080;-85
2021/12/30 05:15:24;;;;;;;9.55;2.30;;;;;;;;;;5019569;28;20040;-83
2021/12/30 05:17:51;;;;;;;8.50;2.38;;;;;;;;;;4998664;28;20033;-84
2021/12/30 05:20:19;;;;;;;8.45;2.40;;;;;;;;;;5005422;28;20399;-84
2021/12/30 05:22:46;;;;;;;10.02;2.38;;;;;;;;;;4982608;28;20044;-84
2021/12/30 05:25:13;;;;;;;8.77;2.40;;;;;;;;;;4999369;28;20036;-84
2021/12/30 05:27:48;;;;;;;7.97;2.25;;;;;;;;;;5001824;28;20025;-84
2021/12/30 05:30:16;;;;;;;8.98;2.40;;;;;;;;;;5001227;28;20041;-83
2021/12/30 05:32:43;;;;;;;9.52;2.10;;;;;;;;;;4989027;28;20809;-83
2021/12/30 05:35:17;;;;;;;11.40;2.55;;;;;;;;;;4998802;28;20053;-84
2021/12/30 05:37:46;;;;;;;9.10;2.30;;;;;;;;;;5003760;28;20508;-83
2021/12/30 05:40:19;;;;;;;8.82;2.40;;;;;;;;;;5003274;28;20175;-83
2021/12/30 05:42:48;;;;;;;7.93;2.45;;;;;;;;;;5001761;28;20048;-84
2021/12/30 05:45:16;;;;;;;9.18;2.55;;;;;;;;;;5005318;28;20025;-83
2021/12/30 05:47:46;;;;;;;9.95;3.00;;;;;;;;;;5016298;28;20086;-84
2021/12/30 05:50:14;;;;;;;9.30;3.28;;;;;;;;;;5021365;28;20056;-85
2021/12/30 05:52:42;;;;;;;11.32;3.45;;;;;;;;;;5019150;28;20625;-84
2021/12/30 05:55:09;;;;;;;9.48;3.08;;;;;;;;;;5003564;28;20158;-84
2021/12/30 05:57:36;;;;;;;11.80;3.47;;;;;;;;;;5019802;28;20028;-83
2021/12/30 06:00:08;;;;;;;9.23;3.13;;;;;;;;;;5016375;28;20634;-83
2021/12/30 06:02:37;;;;;;;8.30;3.05;;;;;;;;;;5020906;28;20079;-85
2021/12/30 06:05:04;;;;;;;8.60;3.00;;;;;;;;;;4999642;28;20133;-84
2021/12/30 06:07:31;;;;;;;11.02;3.50;;;;;;;;;;5012118;28;20025;-83
2021/12/30 06:10:01;;;;;;;8.65;3.58;;;;;;;;;;5005425;28;20088;-83
2021/12/30 06:12:27;;;;;;;7.80;3.20;;;;;;;;;;5006338;28;20064;-83
2021/12/30 06:14:57;;;;;;;9.73;2.88;;;;;;;;;;5004966;28;20569;-84
2021/12/30 06:17:24;;;;;;;8.93;2.67;;;;;;;;;;4988999;28;20743;-84
2021/12/30 06:19:52;;;;;;;7.57;2.67;;;;;;;;;;4990222;28;20037;-85
2021/12/30 06:22:21;;;;;;;11.30;3.70;;;;;;;;;;5010898;28;20432;-84
2021/12/30 06:24:48;;;;;;;12.50;3.15;;;;;;;;;;5006912;28;20108;-84
2021/12/30 06:27:16;;;;;;;9.73;2.72;;;;;;;;;;5009606;28;20025;-84
2021/12/30 06:29:43;;;;;;;9.15;3.00;;;;;;;;;;5005066;28;20038;-84
2021/12/30 06:32:11;;;;;;;8.85;2.67;;;;;;;;;;5005027;28;20037;-84
2021/12/30 06:34:38;;;;;;;10.52;3.00;;;;;;;;;;5006142;28;20041;-85
2021/12/30 06:37:07;;;;;;;8.32;2.75;;;;;;;;;;5002135;28;20025;-84
2021/12/30 06:39:35;;;;;;;8.73;2.60;;;;;;;;;;5020876;28;20040;-84
2021/12/30 06:42:02;;;;;;;9.35;2.75;;;;;;;;;;5001941;28;20037;-85
2021/12/30 06:44:28;;;;;;;9.02;2.60;;;;;;;;;;5020855;28;20040;-85
2021/12/30 06:46:59;;;;;;;7.43;2.40;;;;;;;;;;4999720;28;20100;-84
2021/12/30 06:49:36;;;;;;;8.48;2.70;;;;;;;;;;5000955;28;20033;-84
2021/12/30 06:52:08;;;;;;;10.15;3.10;;;;;;;;;;5004491;28;20168;-84
2021/12/30 06:54:36;;;;;;;8.50;2.70;;;;;;;;;;5004181;28;20694;-83
2021/12/30 06:57:06;;;;;;;8.32;2.75;;;;;;;;;;5001789;28;20022;-83
2021/12/30 06:59:37;;;;;;;9.32;2.50;;;;;;;;;;5004288;28;20032;-84
2021/12/30 07:02:06;;;;;;;10.18;3.20;;;;;;;;;;5000415;28;20076;-84
2021/12/30 07:04:32;;;;;;;8.15;3.13;;;;;;;;;;5005460;28;20029;-83
2021/12/30 07:07:01;;;;;;;10.00;3.17;;;;;;;;;;4997750;28;20163;-84
2021/12/30 07:09:28;;;;;;;9.95;3.50;;;;;;;;;;4999677;28;20195;-84
2021/12/30 07:11:55;;;;;;;11.68;4.00;;;;;;;;;;4996381;28;20099;-87
2021/12/30 07:14:25;;;;;;;9.90;3.88;;;;;;;;;;5000517;28;20123;-84
2021/12/30 07:16:53;;;;;;;10.30;4.00;;;;;;;;;;5002488;28;20034;-85
2021/12/30 07:19:23;;;;;;;15.48;5.68;;;;;;;;;;4996934;28;20115;-85
2021/12/30 07:21:50;;;;;;;11.13;4.50;;;;;;;;;;5001113;28;20440;-85
2021/12/30 07:24:23;;;;;;;14.82;4.68;;;;;;;;;;5000689;28;20068;-85
2021/12/30 07:26:52;;;;;;;11.90;4.80;;;;;;;;;;4997648;28;20033;-86
2021/12/30 07:29:19;;;;;;;14.38;5.47;;;;;;;;;;5007219;28;20068;-84
2021/12/30 07:31:47;;;;;;;14.65;5.63;;;;;;;;;;4997753;28;20029;-85
2021/12/30 07:34:13;;;;;;;13.15;5.50;;;;;;;;;;5004874;28;20026;-85
2021/12/30 07:36:40;;;;;;;13.40;5.30;;;;;;;;;;5004698;28;20068;-85
2021/12/30 07:39:07;;;;;;;14.90;5.28;;;;;;;;;;4999809;28;20033;-86
2021/12/30 07:41:34;;;;;;;12.45;5.07;;;;;;;;;;5001612;28;20026;-85
2021/12/30 07:44:00;;;;;;;12.30;4.53;;;;;;;;;;4999522;28;20032;-86
2021/12/30 07:46:28;;;;;;;12.82;4.45;;;;;;;;;;5006033;28;20088;-85
2021/12/30 07:48:57;;;;;;;14.02;4.85;;;;;;;;;;4999059;28;20029;-86
2021/12/30 07:51:24;;;;;;;10.73;4.45;;;;;;;;;;5018045;28;20037;-85
2021/12/30 07:53:50;;;;;;;10.55;4.10;;;;;;;;;;5002517;28;20126;-85
2021/12/30 07:56:17;;;;;;;13.70;4.70;;;;;;;;;;4999583;28;20057;-86
2021/12/30 07:58:44;;;;;;;14.23;4.63;;;;;;;;;;5005732;28;20059;-85
2021/12/30 08:01:11;;;;;;;11.73;4.82;;;;;;;;;;4997624;28;20029;-85
2021/12/30 08:03:37;;;;;;;12.35;4.82;;;;;;;;;;4996657;28;20046;-85
2021/12/30 08:06:04;;;;;;;11.27;4.78;;;;;;;;;;4998877;28;20037;-85
2021/12/30 08:08:32;;;;;;;11.45;3.80;;;;;;;;;;5001036;28;20054;-84
2021/12/30 08:10:58;;;;;;;12.85;4.32;;;;;;;;;;5014538;28;20041;-85
2021/12/30 08:13:27;;;;;;;11.45;4.07;;;;;;;;;;5003909;28;20025;-85
2021/12/30 08:15:56;;;;;;;12.63;4.00;;;;;;;;;;5000839;28;20565;-84
2021/12/30 08:18:23;;;;;;;14.23;3.85;;;;;;;;;;5002909;28;20146;-86
2021/12/30 08:20:52;;;;;;;10.23;3.80;;;;;;;;;;4994799;28;20060;-85
2021/12/30 08:23:21;;;;;;;11.05;4.68;;;;;;;;;;4998851;28;20026;-85
2021/12/30 08:25:51;;;;;;;10.82;4.15;;;;;;;;;;5005143;28;20040;-86
2021/12/30 08:28:17;;;;;;;12.70;4.47;;;;;;;;;;5003438;28;20554;-85
2021/12/30 08:30:46;;;;;;;12.52;4.88;;;;;;;;;;5004931;28;21500;-86
2021/12/30 08:33:13;;;;;;;12.10;5.15;;;;;;;;;;5003725;28;20033;-86
2021/12/30 08:35:39;;;;;;;10.20;4.57;;;;;;;;;;5005152;28;20036;-87
2021/12/30 08:38:06;;;;;;;;;;;;;;;;;;4997977;28;20769;-85
2021/12/30 08:40:34;;;;;;;17.23;6.93;;;;;;;;;;5007709;28;19921;-88
2021/12/30 08:43:02;;;;;;;13.90;5.78;;;;;;;;;;5000213;28;20068;-86
2021/12/30 08:45:30;;;;;;;11.93;4.55;;;;;;;;;;5008492;28;20029;-85
2021/12/30 08:47:57;;;;;;;13.48;4.85;;;;;;;;;;4998698;28;20036;-86
2021/12/30 08:50:25;;;;;;;12.18;5.20;;;;;;;;;;5007516;28;20031;-86
2021/12/30 08:52:52;;;;;;;11.45;5.50;;;;;;;;;;5004943;28;20191;-89
2021/12/30 08:55:18;;;;;;;13.85;5.38;;;;;;;;;;5010577;28;20018;-87
2021/12/30 08:57:47;;;;;;;11.90;5.50;;;;;;;;;;5007954;28;20460;-88
2021/12/30 09:00:36;;;;;;;13.15;6.00;;;;;;;;;;4987843;28;20029;-87
2021/12/30 09:03:05;;;;;;;14.07;5.50;;;;;;;;;;5004901;28;20046;-88
2021/12/30 09:05:33;;;;;;;10.98;4.85;;;;;;;;;;5024407;28;20033;-85
2021/12/30 09:08:04;;;;;;;12.25;5.53;;;;;;;;;;5009274;28;20029;-87
2021/12/30 09:10:35;;;;;;;13.57;5.57;;;;;;;;;;4996900;28;20052;-87
2021/12/30 09:13:05;;;;;;;13.90;5.55;;;;;;;;;;5009118;28;20052;-86
2021/12/30 09:15:32;;;;;;;13.93;5.35;;;;;;;;;;5008995;28;20033;-87
2021/12/30 09:17:59;;;;;;;13.63;6.82;;;;;;;;;;5006503;28;20025;-89
2021/12/30 09:20:25;;;;;;;15.75;6.47;;;;;;;;;;5008604;28;20730;-88
2021/12/30 09:22:53;;;;;;;13.23;5.78;;;;;;;;;;5012172;28;20033;-88
2021/12/30 09:25:23;;;;;;;12.05;5.57;;;;;;;;;;5012118;28;20033;-88
2021/12/30 09:27:51;;;;;;;13.65;5.45;;;;;;;;;;5010447;28;20087;-88
2021/12/30 09:30:18;;;;;;;12.20;5.22;;;;;;;;;;5010891;28;20036;-87
2021/12/30 09:32:46;;;;;;;12.95;6.32;;;;;;;;;;5008389;28;20062;-87
2021/12/30 09:35:12;;;;;;;12.80;5.57;;;;;;;;;;4994088;28;20132;-88
2021/12/30 09:37:39;;;;;;;12.65;5.47;;;;;;;;;;5015443;28;20112;-87
2021/12/30 09:40:13;;;;;;;12.48;5.35;;;;;;;;;;5010213;28;20519;-88
2021/12/30 09:42:54;;;;;;;12.02;5.32;;;;;;;;;;5012473;28;20038;-87
2021/12/30 09:45:24;;;;;;;10.98;5.00;;;;;;;;;;5014838;28;20108;-89
2021/12/30 09:47:52;;;;;;;11.73;4.65;;;;;;;;;;5009838;28;20029;-87
2021/12/30 09:50:20;;;;;;;12.15;5.32;;;;;;;;;;5011918;28;20063;-87
2021/12/30 09:52:46;;;;;;;12.70;5.60;;;;;;;;;;5027317;28;20041;-86
2021/12/30 09:55:14;;;;;;;14.85;7.25;;;;;;;;;;5011373;28;20132;-87
2021/12/30 09:57:41;;;;;;;15.57;7.57;;;;;;;;;;5014287;28;20059;-88
2021/12/30 10:00:11;;;;;;;16.85;7.97;;;;;;;;;;5010804;28;21248;-88
2021/12/30 10:02:38;;;;;;;14.25;7.93;;;;;;;;;;5012114;28;20048;-88
2021/12/30 10:05:08;;;;;;;15.30;7.75;;;;;;;;;;5012629;28;20037;-88
2021/12/30 10:07:34;;;;;;;14.90;7.78;;;;;;;;;;5011988;28;20024;-88
2021/12/30 10:10:03;;;;;;;13.30;7.38;;;;;;;;;;5008108;28;20050;-90
2021/12/30 10:12:47;;;;;;;13.80;6.88;;;;;;;;;;5018094;28;20022;-90
2021/12/30 10:15:14;;;;;;;15.90;7.57;;;;;;;;;;5016700;28;20031;-90
2021/12/30 10:17:42;;;;;;;14.95;8.60;;;;;;;;;;5015020;28;20029;-90
2021/12/30 10:20:25;;;;;;;14.65;8.05;;;;;;;;;;5015539;28;20527;-90
2021/12/30 10:22:54;;;;;;;17.23;9.75;;;;;;;;;;5012658;28;20049;-91
2021/12/30 10:25:30;;;;;;;16.95;9.38;;;;;;;;;;5014198;28;20029;-91
2021/12/30 10:28:16;;;;;;;15.63;9.18;;;;;;;;;;5015314;28;20416;-89
2021/12/30 10:30:44;;;;;;;15.02;8.40;;;;;;;;;;5021169;28;20099;-91
2021/12/30 10:33:16;;;;;;;15.80;8.90;;;;;;;;;;5024459;28;20033;-88
2021/12/30 10:35:46;;;;;;;15.30;8.98;;;;;;;;;;5023935;28;20033;-87
2021/12/30 10:38:14;;;;;;;15.60;8.13;;;;;;;;;;5002355;28;20318;-92
2021/12/30 10:40:42;;;;;;;16.40;8.20;;;;;;;;;;5018050;28;20064;-91
2021/12/30 10:43:17;;;;;;;15.23;8.20;;;;;;;;;;5018556;28;20580;-89
2021/12/30 10:45:44;;;;;;;14.63;8.60;;;;;;;;;;5017753;28;20030;-90
2021/12/30 10:48:11;;;;;;;15.60;7.35;;;;;;;;;;5016734;28;20038;-89
2021/12/30 10:50:40;;;;;;;14.35;7.28;;;;;;;;;;5029183;28;20037;-91
2021/12/30 10:53:09;;;;;;;13.05;6.07;;;;;;;;;;5022884;28;20025;-92
2021/12/30 10:55:37;;;;;;;11.68;4.85;;;;;;;;;;5014683;28;20079;-89
2021/12/30 10:58:24;;;;;;;10.93;5.13;;;;;;;;;;5035735;28;20056;-88
2021/12/30 11:00:54;;;;;;;11.25;4.85;;;;;;;;;;5025935;28;20030;-88
2021/12/30 11:03:28;;;;;;;11.40;4.43;;;;;;;;;;5030281;28;20026;-89
2021/12/30 11:06:20;;;;;;;9.05;4.10;;;;;;;;;;5032601;28;20033;-89
2021/12/30 11:08:49;;;;;;;12.15;5.00;;;;;;;;;;5027398;28;20033;-89
2021/12/30 11:11:25;;;;;;;9.95;3.90;;;;;;;;;;5002593;28;20038;-88
2021/12/30 11:13:58;;;;;;;10.30;4.45;;;;;;;;;;4981163;28;20045;-89
2021/12/30 11:16:25;;;;;;;11.23;6.22;;;;;;;;;;5003157;28;20328;-89
2021/12/30 11:18:56;;;;;;;8.60;3.15;;;;;;;;;;4979395;28;20701;-90
2021/12/30 11:21:44;;;;;;;8.95;3.60;;;;;;;;;;4982654;28;20050;-89
2021/12/30 11:24:12;;;;;;;7.55;2.35;;;;;;;;;;4996575;28;20034;-88
2021/12/30 11:26:38;;;;;;;8.65;2.70;;;;;;;;;;4981773;28;20172;-88
2021/12/30 11:29:06;;;;;;;7.05;2.40;;;;;;;;;;4985304;28;20025;-89
2021/12/30 11:31:35;;;;;;;8.02;2.50;;;;;;;;;;4980701;28;20045;-88
2021/12/30 11:34:10;;;;;;;7.22;2.45;;;;;;;;;;4979113;28;20164;-88
2021/12/30 11:36:38;;;;;;;6.60;2.38;;;;;;;;;;4984227;28;20057;-89
2021/12/30 11:39:15;;;;;;;7.93;2.45;;;;;;;;;;4966720;28;20030;-88
2021/12/30 11:41:43;;;;;;;8.07;2.58;;;;;;;;;;4983288;28;20648;-88
2021/12/30 11:44:11;;;;;;;7.90;2.42;;;;;;;;;;5000012;28;20053;-86
2021/12/30 11:46:38;;;;;;;8.23;2.70;;;;;;;;;;4987482;28;20762;-88
2021/12/30 11:49:07;;;;;;;6.47;2.35;;;;;;;;;;4986701;28;20041;-89
2021/12/30 11:51:44;;;;;;;9.38;4.05;;;;;;;;;;5001054;28;20029;-89
2021/12/30 11:54:29;;;;;;;8.50;3.80;;;;;;;;;;4976669;28;20037;-82
2021/12/30 11:57:14;;;;;;;10.45;5.72;;;;;;;;;;4968034;28;20111;-81
2021/12/30 11:59:41;;;;;;;9.57;4.47;;;;;;;;;;4985186;28;20734;-82
2021/12/30 12:02:44;;;;;;;8.48;4.15;;;;;;;;;;4987929;28;21593;-83
2021/12/30 12:05:31;;;;;;;9.00;4.00;;;;;;;;;;4887704;29;20047;-83
2021/12/30 12:08:09;;;;;;;10.05;4.05;;;;;;;;;;4888685;29;20049;-83
2021/12/30 12:10:36;;;;;;;8.68;4.20;;;;;;;;;;4922999;28;20180;-83
2021/12/30 12:13:24;;;;;;;10.30;4.20;;;;;;;;;;4926182;29;20489;-83
2021/12/30 12:15:55;;;;;;;8.73;3.88;;;;;;;;;;4899486;28;21364;-84
2021/12/30 12:18:23;;;;;;;9.90;4.00;;;;;;;;;;4923976;28;20031;-83
2021/12/30 12:20:55;;;;;;;9.82;4.07;;;;;;;;;;4919634;28;20078;-82
2021/12/30 12:23:33;;;;;;;9.63;3.60;;;;;;;;;;4922279;29;20381;-82
2021/12/30 12:26:10;;;;;;;8.50;3.53;;;;;;;;;;4919061;28;20134;-83
2021/12/30 12:28:39;;;;;;;7.95;3.25;;;;;;;;;;4924163;28;20023;-83
2021/12/30 12:31:07;;;;;;;7.50;3.08;;;;;;;;;;4918700;28;20078;-83
2021/12/30 12:33:34;;;;;;;8.05;3.67;;;;;;;;;;4924434;28;20122;-82
2021/12/30 12:36:03;;;;;;;9.98;4.05;;;;;;;;;;4923179;28;20105;-82
2021/12/30 12:38:46;;;;;;;8.95;4.30;;;;;;;;;;4942478;28;20044;-82
2021/12/30 12:41:17;;;;;;;8.88;3.83;;;;;;;;;;5001874;28;20025;-82
2021/12/30 12:43:43;;;;;;;9.35;4.10;;;;;;;;;;5020999;28;20069;-84
2021/12/30 12:46:12;;;;;;;9.38;4.40;;;;;;;;;;5000547;28;20142;-82
2021/12/30 12:48:41;;;;;;;10.45;5.00;;;;;;;;;;5020437;28;20080;-84
2021/12/30 12:51:26;;;;;;;9.85;4.75;;;;;;;;;;5000741;28;20059;-83
2021/12/30 12:54:02;;;;;;;12.20;4.90;;;;;;;;;;5009981;28;20040;-84
2021/12/30 12:56:34;;;;;;;8.25;3.90;;;;;;;;;;5008841;28;20598;-83
2021/12/30 12:59:19;;;;;;;9.48;4.40;;;;;;;;;;5012809;28;20029;-83
2021/12/30 13:01:47;;;;;;;9.95;4.40;;;;;;;;;;5012194;28;20476;-83
2021/12/30 13:04:14;;;;;;;9.52;4.13;;;;;;;;;;5011055;28;20091;-83
2021/12/30 13:06:41;;;;;;;9.10;4.05;;;;;;;;;;5006932;28;20033;-83
2021/12/30 13:09:13;;;;;;;10.15;4.22;;;;;;;;;;5002958;28;20041;-82
2021/12/30 13:11:45;;;;;;;9.98;4.60;;;;;;;;;;5005210;28;20124;-82
2021/12/30 13:14:19;;;;;;;9.48;4.13;;;;;;;;;;5008817;28;20079;-82
2021/12/30 13:16:54;;;;;;;9.52;4.13;;;;;;;;;;5012567;28;20091;-82
2021/12/30 13:19:24;;;;;;;9.80;4.40;;;;;;;;;;5016243;28;20316;-82
2021/12/30 13:22:00;;;;;;;9.68;4.13;;;;;;;;;;5012909;28;20029;-82
2021/12/30 13:24:27;;;;;;;;;;;;;;;;;;5014945;28;20041;-82
2021/12/30 13:26:54;;;;;;;9.68;4.25;;;;;;;;;;5015033;28;19928;-83
2021/12/30 13:29:24;;;;;;;8.00;3.35;;;;;;;;;;5007904;28;20034;-82
2021/12/30 13:32:09;;;;;;;9.40;3.80;;;;;;;;;;5015439;28;20106;-83
2021/12/30 13:34:36;;;;;;;9.85;4.10;;;;;;;;;;5000083;28;20068;-83
2021/12/30 13:37:15;;;;;;;8.75;4.03;;;;;;;;;;5018571;28;20024;-83
2021/12/30 13:39:43;;;;;;;8.50;3.08;;;;;;;;;;5034490;28;20072;-83
2021/12/30 13:42:19;;;;;;;8.63;3.33;;;;;;;;;;5013253;28;20041;-83
2021/12/30 13:44:52;;;;;;;8.57;3.22;;;;;;;;;;5024275;28;20069;-83
2021/12/30 13:47:46;;;;;;;8.27;3.65;;;;;;;;;;5018438;28;20033;-83
2021/12/30 13:50:15;;;;;;;8.90;3.40;;;;;;;;;;5015788;28;20045;-82
2021/12/30 13:52:51;;;;;;;7.93;3.20;;;;;;;;;;5007168;28;21117;-81
2021/12/30 13:55:18;;;;;;;9.45;3.42;;;;;;;;;;5024164;28;20104;-83
2021/12/30 13:57:59;;;;;;;8.25;2.95;;;;;;;;;;5009279;28;20061;-84
2021/12/30 14:00:27;;;;;;;8.07;3.05;;;;;;;;;;5004220;28;20734;-81
2021/12/30 14:03:01;;;;;;;7.45;3.05;;;;;;;;;;5015073;28;20025;-81
2021/12/30 14:05:28;;;;;;;7.93;2.85;;;;;;;;;;5019679;28;20116;-83
2021/12/30 14:07:56;;;;;;;7.32;2.70;;;;;;;;;;5011947;28;20037;-82
2021/12/30 14:10:23;;;;;;;7.90;2.83;;;;;;;;;;5014721;28;20152;-82
2021/12/30 14:13:02;;;;;;;6.93;2.33;;;;;;;;;;5016821;28;20026;-82
2021/12/30 14:15:35;;;;;;;7.93;2.88;;;;;;;;;;4996163;28;20029;-82
2021/12/30 14:18:04;;;;;;;7.53;2.88;;;;;;;;;;5012191;28;20104;-81
2021/12/30 14:20:32;;;;;;;9.95;4.53;;;;;;;;;;5012647;28;20033;-82
2021/12/30 14:23:00;;;;;;;9.27;3.45;;;;;;;;;;5012676;28;20034;-81
2021/12/30 14:25:34;;;;;;;9.80;3.60;;;;;;;;;;5015101;28;20142;-82
2021/12/30 14:28:03;;;;;;;8.15;2.83;;;;;;;;;;5007297;28;20060;-81
2021/12/30 14:30:31;;;;;;;8.77;3.40;;;;;;;;;;5017608;28;20034;-82
2021/12/30 14:32:57;;;;;;;8.68;3.22;;;;;;;;;;5008388;28;20025;-81
2021/12/30 14:35:26;;;;;;;11.45;4.70;;;;;;;;;;5007666;28;20056;-82
2021/12/30 14:37:56;;;;;;;9.73;3.47;;;;;;;;;;5005341;28;20792;-81
2021/12/30 14:40:24;;;;;;;9.32;3.80;;;;;;;;;;5013511;28;20033;-82
2021/12/30 14:43:04;;;;;;;9.65;3.85;;;;;;;;;;5009697;28;20044;-82
2021/12/30 14:45:38;;;;;;;10.30;4.78;;;;;;;;;;5009388;28;20033;-82
2021/12/30 14:48:10;;;;;;;11.55;5.03;;;;;;;;;;5005336;28;20033;-81
2021/12/30 14:50:37;;;;;;;9.90;4.57;;;;;;;;;;5007029;28;20029;-82
2021/12/30 14:53:06;;;;;;;8.63;4.05;;;;;;;;;;4992057;28;20084;-82